sensor_id;sensor_type;location;lat;lon;timestamp;P1;durP1;ratioP1;P2;durP2;ratioP2
27618;SDS011;15039;50.830;4.730;2023-12-28T00:01:36;4.35;;;1.40;;
27618;SDS011;15039;50.830;4.730;2023-12-28T00:04:01;3.15;;;1.20;;
27618;SDS011;15039;50.830;4.730;2023-12-28T00:06:32;1.42;;;1.15;;
27618;SDS011;15039;50.830;4.730;2023-12-28T00:08:57;1.38;;;1.25;;
27618;SDS011;15039;50.830;4.730;2023-12-28T00:11:25;1.30;;;1.20;;
27618;SDS011;15039;50.830;4.730;2023-12-28T00:13:51;1.70;;;1.38;;
27618;SDS011;15039;50.830;4.730;2023-12-28T00:16:16;1.58;;;1.40;;
27618;SDS011;15039;50.830;4.730;2023-12-28T00:18:42;1.98;;;1.58;;
27618;SDS011;15039;50.830;4.730;2023-12-28T00:21:08;1.85;;;1.60;;
27618;SDS011;15039;50.830;4.730;2023-12-28T00:23:33;1.77;;;1.40;;
27618;SDS011;15039;50.830;4.730;2023-12-28T00:25:59;2.60;;;1.48;;
27618;SDS011;15039;50.830;4.730;2023-12-28T00:28:25;1.92;;;1.42;;
27618;SDS011;15039;50.830;4.730;2023-12-28T00:30:50;2.17;;;1.50;;
27618;SDS011;15039;50.830;4.730;2023-12-28T00:33:16;3.47;;;1.55;;
27618;SDS011;15039;50.830;4.730;2023-12-28T00:35:42;1.77;;;1.50;;
27618;SDS011;15039;50.830;4.730;2023-12-28T00:38:07;1.70;;;1.60;;
27618;SDS011;15039;50.830;4.730;2023-12-28T00:40:33;1.73;;;1.40;;
27618;SDS011;15039;50.830;4.730;2023-12-28T00:42:59;1.48;;;1.38;;
27618;SDS011;15039;50.830;4.730;2023-12-28T00:45:24;2.47;;;1.60;;
27618;SDS011;15039;50.830;4.730;2023-12-28T00:47:50;2.13;;;1.65;;
27618;SDS011;15039;50.830;4.730;2023-12-28T00:50:17;1.60;;;1.40;;
27618;SDS011;15039;50.830;4.730;2023-12-28T00:52:43;3.03;;;1.40;;
27618;SDS011;15039;50.830;4.730;2023-12-28T00:55:10;2.95;;;1.70;;
27618;SDS011;15039;50.830;4.730;2023-12-28T00:57:35;3.45;;;1.75;;
27618;SDS011;15039;50.830;4.730;2023-12-28T01:00:01;3.58;;;1.73;;
27618;SDS011;15039;50.830;4.730;2023-12-28T01:02:27;1.90;;;1.50;;
27618;SDS011;15039;50.830;4.730;2023-12-28T01:04:53;4.38;;;1.50;;
27618;SDS011;15039;50.830;4.730;2023-12-28T01:07:19;2.92;;;1.60;;
27618;SDS011;15039;50.830;4.730;2023-12-28T01:09:46;2.08;;;1.30;;
27618;SDS011;15039;50.830;4.730;2023-12-28T01:12:11;5.00;;;1.75;;
27618;SDS011;15039;50.830;4.730;2023-12-28T01:14:37;2.65;;;1.38;;
27618;SDS011;15039;50.830;4.730;2023-12-28T01:17:03;1.30;;;1.20;;
27618;SDS011;15039;50.830;4.730;2023-12-28T01:19:28;5.18;;;1.80;;
27618;SDS011;15039;50.830;4.730;2023-12-28T01:21:54;2.47;;;1.90;;
27618;SDS011;15039;50.830;4.730;2023-12-28T01:24:20;2.00;;;1.48;;
27618;SDS011;15039;50.830;4.730;2023-12-28T01:26:47;3.92;;;1.65;;
27618;SDS011;15039;50.830;4.730;2023-12-28T01:29:13;2.63;;;1.50;;
27618;SDS011;15039;50.830;4.730;2023-12-28T01:31:38;2.10;;;1.67;;
27618;SDS011;15039;50.830;4.730;2023-12-28T01:34:05;2.65;;;1.70;;
27618;SDS011;15039;50.830;4.730;2023-12-28T01:36:30;1.70;;;1.60;;
27618;SDS011;15039;50.830;4.730;2023-12-28T01:38:56;3.40;;;1.60;;
27618;SDS011;15039;50.830;4.730;2023-12-28T01:41:22;2.58;;;1.77;;
27618;SDS011;15039;50.830;4.730;2023-12-28T01:43:47;2.20;;;1.60;;
27618;SDS011;15039;50.830;4.730;2023-12-28T01:46:16;2.25;;;1.85;;
27618;SDS011;15039;50.830;4.730;2023-12-28T01:48:45;3.03;;;1.60;;
27618;SDS011;15039;50.830;4.730;2023-12-28T01:51:14;1.95;;;1.60;;
27618;SDS011;15039;50.830;4.730;2023-12-28T01:53:40;2.00;;;1.73;;
27618;SDS011;15039;50.830;4.730;2023-12-28T01:56:07;3.03;;;1.60;;
27618;SDS011;15039;50.830;4.730;2023-12-28T01:58:33;4.45;;;1.98;;
27618;SDS011;15039;50.830;4.730;2023-12-28T02:01:02;1.88;;;1.50;;
27618;SDS011;15039;50.830;4.730;2023-12-28T02:03:28;3.92;;;1.60;;
27618;SDS011;15039;50.830;4.730;2023-12-28T02:05:54;2.95;;;1.80;;
27618;SDS011;15039;50.830;4.730;2023-12-28T02:08:20;3.10;;;1.98;;
27618;SDS011;15039;50.830;4.730;2023-12-28T02:10:46;2.35;;;1.50;;
27618;SDS011;15039;50.830;4.730;2023-12-28T02:13:12;3.13;;;1.60;;
27618;SDS011;15039;50.830;4.730;2023-12-28T02:15:38;2.08;;;1.40;;
27618;SDS011;15039;50.830;4.730;2023-12-28T02:18:11;2.15;;;1.40;;
27618;SDS011;15039;50.830;4.730;2023-12-28T02:20:38;2.80;;;1.52;;
27618;SDS011;15039;50.830;4.730;2023-12-28T02:23:05;2.30;;;1.67;;
27618;SDS011;15039;50.830;4.730;2023-12-28T02:25:31;6.40;;;2.33;;
27618;SDS011;15039;50.830;4.730;2023-12-28T02:27:57;4.75;;;2.00;;
27618;SDS011;15039;50.830;4.730;2023-12-28T02:30:23;2.10;;;1.50;;
27618;SDS011;15039;50.830;4.730;2023-12-28T02:33:05;1.67;;;1.33;;
27618;SDS011;15039;50.830;4.730;2023-12-28T02:35:44;1.70;;;1.33;;
27618;SDS011;15039;50.830;4.730;2023-12-28T02:38:14;2.22;;;1.40;;
27618;SDS011;15039;50.830;4.730;2023-12-28T02:40:42;2.50;;;1.30;;
27618;SDS011;15039;50.830;4.730;2023-12-28T02:43:09;3.08;;;1.63;;
27618;SDS011;15039;50.830;4.730;2023-12-28T02:45:36;2.58;;;1.67;;
27618;SDS011;15039;50.830;4.730;2023-12-28T02:48:03;3.33;;;1.63;;
27618;SDS011;15039;50.830;4.730;2023-12-28T02:50:29;2.08;;;1.65;;
27618;SDS011;15039;50.830;4.730;2023-12-28T02:52:55;3.90;;;1.55;;
27618;SDS011;15039;50.830;4.730;2023-12-28T02:55:22;3.92;;;1.73;;
27618;SDS011;15039;50.830;4.730;2023-12-28T02:57:49;2.13;;;1.50;;
27618;SDS011;15039;50.830;4.730;2023-12-28T03:00:15;3.22;;;1.80;;
27618;SDS011;15039;50.830;4.730;2023-12-28T03:02:41;2.90;;;1.45;;
27618;SDS011;15039;50.830;4.730;2023-12-28T03:05:08;3.63;;;1.80;;
27618;SDS011;15039;50.830;4.730;2023-12-28T03:07:34;2.50;;;1.63;;
27618;SDS011;15039;50.830;4.730;2023-12-28T03:10:00;1.67;;;1.27;;
27618;SDS011;15039;50.830;4.730;2023-12-28T03:12:26;2.90;;;1.70;;
27618;SDS011;15039;50.830;4.730;2023-12-28T03:14:53;2.42;;;1.55;;
27618;SDS011;15039;50.830;4.730;2023-12-28T03:17:20;2.20;;;1.45;;
27618;SDS011;15039;50.830;4.730;2023-12-28T03:19:45;4.75;;;1.75;;
27618;SDS011;15039;50.830;4.730;2023-12-28T03:22:11;2.00;;;1.33;;
27618;SDS011;15039;50.830;4.730;2023-12-28T03:24:37;3.67;;;1.50;;
27618;SDS011;15039;50.830;4.730;2023-12-28T03:27:03;4.18;;;1.70;;
27618;SDS011;15039;50.830;4.730;2023-12-28T03:29:29;2.92;;;1.60;;
27618;SDS011;15039;50.830;4.730;2023-12-28T03:31:55;5.50;;;1.60;;
27618;SDS011;15039;50.830;4.730;2023-12-28T03:34:21;4.55;;;1.90;;
27618;SDS011;15039;50.830;4.730;2023-12-28T03:36:48;2.92;;;1.20;;
27618;SDS011;15039;50.830;4.730;2023-12-28T03:39:14;1.50;;;1.30;;
27618;SDS011;15039;50.830;4.730;2023-12-28T03:41:40;3.25;;;1.30;;
27618;SDS011;15039;50.830;4.730;2023-12-28T03:44:06;4.20;;;1.30;;
27618;SDS011;15039;50.830;4.730;2023-12-28T03:46:31;3.50;;;1.33;;
27618;SDS011;15039;50.830;4.730;2023-12-28T03:48:57;2.70;;;1.33;;
27618;SDS011;15039;50.830;4.730;2023-12-28T03:51:23;1.50;;;1.30;;
27618;SDS011;15039;50.830;4.730;2023-12-28T03:53:49;1.30;;;1.08;;
27618;SDS011;15039;50.830;4.730;2023-12-28T03:56:24;3.97;;;1.67;;
27618;SDS011;15039;50.830;4.730;2023-12-28T03:58:51;3.10;;;1.75;;
27618;SDS011;15039;50.830;4.730;2023-12-28T04:01:20;7.03;;;1.92;;
27618;SDS011;15039;50.830;4.730;2023-12-28T04:03:47;3.25;;;1.23;;
27618;SDS011;15039;50.830;4.730;2023-12-28T04:06:14;3.25;;;1.40;;
27618;SDS011;15039;50.830;4.730;2023-12-28T04:08:40;4.03;;;1.80;;
27618;SDS011;15039;50.830;4.730;2023-12-28T04:11:07;3.92;;;1.45;;
27618;SDS011;15039;50.830;4.730;2023-12-28T04:13:33;2.55;;;1.58;;
27618;SDS011;15039;50.830;4.730;2023-12-28T04:15:59;5.25;;;1.65;;
27618;SDS011;15039;50.830;4.730;2023-12-28T04:18:25;2.25;;;1.10;;
27618;SDS011;15039;50.830;4.730;2023-12-28T04:20:51;3.72;;;1.73;;
27618;SDS011;15039;50.830;4.730;2023-12-28T04:23:18;9.27;;;1.75;;
27618;SDS011;15039;50.830;4.730;2023-12-28T04:25:45;3.78;;;1.42;;
27618;SDS011;15039;50.830;4.730;2023-12-28T04:28:11;2.15;;;1.25;;
27618;SDS011;15039;50.830;4.730;2023-12-28T04:30:37;8.80;;;2.00;;
27618;SDS011;15039;50.830;4.730;2023-12-28T04:33:03;1.98;;;1.40;;
27618;SDS011;15039;50.830;4.730;2023-12-28T04:35:29;4.72;;;1.60;;
27618;SDS011;15039;50.830;4.730;2023-12-28T04:37:55;5.00;;;1.20;;
27618;SDS011;15039;50.830;4.730;2023-12-28T04:40:21;5.65;;;1.20;;
27618;SDS011;15039;50.830;4.730;2023-12-28T04:42:47;6.18;;;1.58;;
27618;SDS011;15039;50.830;4.730;2023-12-28T04:45:12;9.00;;;1.98;;
27618;SDS011;15039;50.830;4.730;2023-12-28T04:47:38;3.42;;;1.30;;
27618;SDS011;15039;50.830;4.730;2023-12-28T04:50:05;3.13;;;1.35;;
27618;SDS011;15039;50.830;4.730;2023-12-28T04:52:32;5.35;;;1.75;;
27618;SDS011;15039;50.830;4.730;2023-12-28T04:54:58;5.30;;;1.85;;
27618;SDS011;15039;50.830;4.730;2023-12-28T04:57:25;4.38;;;1.33;;
27618;SDS011;15039;50.830;4.730;2023-12-28T04:59:52;3.58;;;1.70;;
27618;SDS011;15039;50.830;4.730;2023-12-28T05:02:18;5.93;;;1.45;;
27618;SDS011;15039;50.830;4.730;2023-12-28T05:04:44;3.67;;;1.30;;
27618;SDS011;15039;50.830;4.730;2023-12-28T05:07:10;4.15;;;1.70;;
27618;SDS011;15039;50.830;4.730;2023-12-28T05:09:35;6.05;;;1.60;;
27618;SDS011;15039;50.830;4.730;2023-12-28T05:12:01;5.63;;;1.60;;
27618;SDS011;15039;50.830;4.730;2023-12-28T05:14:27;4.95;;;1.63;;
27618;SDS011;15039;50.830;4.730;2023-12-28T05:16:53;4.05;;;1.30;;
27618;SDS011;15039;50.830;4.730;2023-12-28T05:19:19;7.90;;;1.98;;
27618;SDS011;15039;50.830;4.730;2023-12-28T05:21:44;7.13;;;1.80;;
27618;SDS011;15039;50.830;4.730;2023-12-28T05:24:11;4.95;;;1.70;;
27618;SDS011;15039;50.830;4.730;2023-12-28T05:26:37;4.35;;;1.52;;
27618;SDS011;15039;50.830;4.730;2023-12-28T05:29:02;4.90;;;1.27;;
27618;SDS011;15039;50.830;4.730;2023-12-28T05:31:28;7.63;;;1.55;;
27618;SDS011;15039;50.830;4.730;2023-12-28T05:33:54;5.38;;;1.70;;
27618;SDS011;15039;50.830;4.730;2023-12-28T05:36:19;6.60;;;2.03;;
27618;SDS011;15039;50.830;4.730;2023-12-28T05:38:45;5.53;;;1.50;;
27618;SDS011;15039;50.830;4.730;2023-12-28T05:41:11;5.43;;;1.63;;
27618;SDS011;15039;50.830;4.730;2023-12-28T05:43:37;5.53;;;1.30;;
27618;SDS011;15039;50.830;4.730;2023-12-28T05:46:03;5.28;;;1.92;;
27618;SDS011;15039;50.830;4.730;2023-12-28T05:48:29;4.60;;;1.58;;
27618;SDS011;15039;50.830;4.730;2023-12-28T05:50:56;5.63;;;1.60;;
27618;SDS011;15039;50.830;4.730;2023-12-28T05:53:23;5.55;;;1.75;;
27618;SDS011;15039;50.830;4.730;2023-12-28T05:55:49;3.33;;;1.60;;
27618;SDS011;15039;50.830;4.730;2023-12-28T05:58:14;6.90;;;1.45;;
27618;SDS011;15039;50.830;4.730;2023-12-28T06:00:40;5.82;;;1.67;;
27618;SDS011;15039;50.830;4.730;2023-12-28T06:03:07;4.18;;;1.65;;
27618;SDS011;15039;50.830;4.730;2023-12-28T06:05:32;5.07;;;1.60;;
27618;SDS011;15039;50.830;4.730;2023-12-28T06:07:58;11.90;;;2.10;;
27618;SDS011;15039;50.830;4.730;2023-12-28T06:10:24;4.75;;;1.83;;
27618;SDS011;15039;50.830;4.730;2023-12-28T06:12:50;4.55;;;1.50;;
27618;SDS011;15039;50.830;4.730;2023-12-28T06:15:15;3.17;;;1.52;;
27618;SDS011;15039;50.830;4.730;2023-12-28T06:17:41;5.68;;;1.70;;
27618;SDS011;15039;50.830;4.730;2023-12-28T06:20:07;4.97;;;1.60;;
27618;SDS011;15039;50.830;4.730;2023-12-28T06:22:34;4.28;;;1.50;;
27618;SDS011;15039;50.830;4.730;2023-12-28T06:25:02;6.75;;;1.95;;
27618;SDS011;15039;50.830;4.730;2023-12-28T06:27:28;5.32;;;1.52;;
27618;SDS011;15039;50.830;4.730;2023-12-28T06:29:54;5.70;;;2.08;;
27618;SDS011;15039;50.830;4.730;2023-12-28T06:32:20;8.07;;;2.40;;
27618;SDS011;15039;50.830;4.730;2023-12-28T06:34:46;6.25;;;1.88;;
27618;SDS011;15039;50.830;4.730;2023-12-28T06:37:13;4.22;;;1.50;;
27618;SDS011;15039;50.830;4.730;2023-12-28T06:39:39;6.45;;;1.85;;
27618;SDS011;15039;50.830;4.730;2023-12-28T06:42:05;4.10;;;1.50;;
27618;SDS011;15039;50.830;4.730;2023-12-28T06:44:30;5.85;;;1.73;;
27618;SDS011;15039;50.830;4.730;2023-12-28T06:46:56;4.78;;;1.60;;
27618;SDS011;15039;50.830;4.730;2023-12-28T06:49:23;8.10;;;2.22;;
27618;SDS011;15039;50.830;4.730;2023-12-28T06:51:49;6.00;;;1.60;;
27618;SDS011;15039;50.830;4.730;2023-12-28T06:54:14;5.57;;;1.88;;
27618;SDS011;15039;50.830;4.730;2023-12-28T06:56:41;5.00;;;2.00;;
27618;SDS011;15039;50.830;4.730;2023-12-28T06:59:07;5.28;;;1.60;;
27618;SDS011;15039;50.830;4.730;2023-12-28T07:01:36;7.50;;;2.00;;
27618;SDS011;15039;50.830;4.730;2023-12-28T07:04:05;5.95;;;2.30;;
27618;SDS011;15039;50.830;4.730;2023-12-28T07:06:31;6.13;;;1.80;;
27618;SDS011;15039;50.830;4.730;2023-12-28T07:08:56;5.35;;;1.52;;
27618;SDS011;15039;50.830;4.730;2023-12-28T07:11:22;6.05;;;1.77;;
27618;SDS011;15039;50.830;4.730;2023-12-28T07:13:48;9.15;;;2.70;;
27618;SDS011;15039;50.830;4.730;2023-12-28T07:16:14;3.65;;;1.42;;
27618;SDS011;15039;50.830;4.730;2023-12-28T07:18:40;8.30;;;2.33;;
27618;SDS011;15039;50.830;4.730;2023-12-28T07:21:06;13.75;;;1.80;;
27618;SDS011;15039;50.830;4.730;2023-12-28T07:26:02;7.13;;;2.03;;
27618;SDS011;15039;50.830;4.730;2023-12-28T07:28:28;7.00;;;2.17;;
27618;SDS011;15039;50.830;4.730;2023-12-28T07:30:54;6.22;;;1.63;;
27618;SDS011;15039;50.830;4.730;2023-12-28T07:33:20;6.18;;;1.67;;
27618;SDS011;15039;50.830;4.730;2023-12-28T07:35:46;5.45;;;2.03;;
27618;SDS011;15039;50.830;4.730;2023-12-28T07:38:12;5.45;;;1.75;;
27618;SDS011;15039;50.830;4.730;2023-12-28T07:40:38;6.38;;;2.17;;
27618;SDS011;15039;50.830;4.730;2023-12-28T07:43:03;7.57;;;1.88;;
27618;SDS011;15039;50.830;4.730;2023-12-28T07:45:29;5.55;;;1.52;;
27618;SDS011;15039;50.830;4.730;2023-12-28T07:47:56;4.47;;;1.73;;
27618;SDS011;15039;50.830;4.730;2023-12-28T07:50:23;6.35;;;1.73;;
27618;SDS011;15039;50.830;4.730;2023-12-28T07:52:49;5.22;;;1.40;;
27618;SDS011;15039;50.830;4.730;2023-12-28T07:55:15;8.68;;;2.35;;
27618;SDS011;15039;50.830;4.730;2023-12-28T07:57:41;8.20;;;2.45;;
27618;SDS011;15039;50.830;4.730;2023-12-28T08:00:07;9.20;;;1.90;;
27618;SDS011;15039;50.830;4.730;2023-12-28T08:02:34;9.07;;;2.40;;
27618;SDS011;15039;50.830;4.730;2023-12-28T08:04:59;8.05;;;1.92;;
27618;SDS011;15039;50.830;4.730;2023-12-28T08:07:25;8.48;;;2.03;;
27618;SDS011;15039;50.830;4.730;2023-12-28T08:09:51;8.52;;;1.92;;
27618;SDS011;15039;50.830;4.730;2023-12-28T08:12:16;8.20;;;1.92;;
27618;SDS011;15039;50.830;4.730;2023-12-28T08:14:42;11.18;;;1.90;;
27618;SDS011;15039;50.830;4.730;2023-12-28T08:17:09;12.05;;;2.05;;
27618;SDS011;15039;50.830;4.730;2023-12-28T08:19:34;7.78;;;1.85;;
27618;SDS011;15039;50.830;4.730;2023-12-28T08:22:00;9.48;;;1.83;;
27618;SDS011;15039;50.830;4.730;2023-12-28T08:24:27;7.88;;;2.05;;
27618;SDS011;15039;50.830;4.730;2023-12-28T08:26:53;6.00;;;2.10;;
27618;SDS011;15039;50.830;4.730;2023-12-28T08:29:19;8.38;;;1.60;;
27618;SDS011;15039;50.830;4.730;2023-12-28T08:31:45;8.35;;;1.83;;
27618;SDS011;15039;50.830;4.730;2023-12-28T08:34:10;7.88;;;1.75;;
27618;SDS011;15039;50.830;4.730;2023-12-28T08:36:36;5.35;;;1.60;;
27618;SDS011;15039;50.830;4.730;2023-12-28T08:39:02;7.25;;;1.80;;
27618;SDS011;15039;50.830;4.730;2023-12-28T08:41:28;5.38;;;1.65;;
27618;SDS011;15039;50.830;4.730;2023-12-28T08:43:54;9.85;;;1.80;;
27618;SDS011;15039;50.830;4.730;2023-12-28T08:46:21;6.50;;;1.70;;
27618;SDS011;15039;50.830;4.730;2023-12-28T08:48:47;8.63;;;2.10;;
27618;SDS011;15039;50.830;4.730;2023-12-28T08:51:12;6.53;;;1.83;;
27618;SDS011;15039;50.830;4.730;2023-12-28T08:53:40;6.35;;;2.03;;
27618;SDS011;15039;50.830;4.730;2023-12-28T08:56:13;7.32;;;2.75;;
27618;SDS011;15039;50.830;4.730;2023-12-28T08:58:45;6.53;;;1.73;;
27618;SDS011;15039;50.830;4.730;2023-12-28T09:01:15;6.78;;;2.00;;
27618;SDS011;15039;50.830;4.730;2023-12-28T09:03:42;4.70;;;1.60;;
27618;SDS011;15039;50.830;4.730;2023-12-28T09:06:08;8.38;;;1.98;;
27618;SDS011;15039;50.830;4.730;2023-12-28T09:08:34;7.40;;;2.50;;
27618;SDS011;15039;50.830;4.730;2023-12-28T09:11:00;6.70;;;1.88;;
27618;SDS011;15039;50.830;4.730;2023-12-28T09:13:26;4.65;;;1.50;;
27618;SDS011;15039;50.830;4.730;2023-12-28T09:15:51;8.90;;;2.50;;
27618;SDS011;15039;50.830;4.730;2023-12-28T09:18:17;9.55;;;1.70;;
27618;SDS011;15039;50.830;4.730;2023-12-28T09:20:43;4.57;;;1.50;;
27618;SDS011;15039;50.830;4.730;2023-12-28T09:23:08;9.13;;;2.00;;
27618;SDS011;15039;50.830;4.730;2023-12-28T09:25:35;9.55;;;2.40;;
27618;SDS011;15039;50.830;4.730;2023-12-28T09:28:04;7.88;;;2.28;;
27618;SDS011;15039;50.830;4.730;2023-12-28T09:30:30;10.40;;;2.00;;
27618;SDS011;15039;50.830;4.730;2023-12-28T09:32:56;8.40;;;2.38;;
27618;SDS011;15039;50.830;4.730;2023-12-28T09:35:22;10.02;;;2.15;;
27618;SDS011;15039;50.830;4.730;2023-12-28T09:37:47;8.82;;;2.30;;
27618;SDS011;15039;50.830;4.730;2023-12-28T09:40:14;7.70;;;2.05;;
27618;SDS011;15039;50.830;4.730;2023-12-28T09:42:43;7.20;;;2.20;;
27618;SDS011;15039;50.830;4.730;2023-12-28T09:45:19;9.13;;;1.90;;
27618;SDS011;15039;50.830;4.730;2023-12-28T09:47:46;10.82;;;2.72;;
27618;SDS011;15039;50.830;4.730;2023-12-28T09:50:14;5.22;;;2.20;;
27618;SDS011;15039;50.830;4.730;2023-12-28T09:52:44;6.88;;;2.13;;
27618;SDS011;15039;50.830;4.730;2023-12-28T09:55:10;7.60;;;2.05;;
27618;SDS011;15039;50.830;4.730;2023-12-28T09:57:36;7.75;;;2.10;;
27618;SDS011;15039;50.830;4.730;2023-12-28T10:00:02;8.10;;;1.90;;
27618;SDS011;15039;50.830;4.730;2023-12-28T10:02:31;9.05;;;2.17;;
27618;SDS011;15039;50.830;4.730;2023-12-28T10:04:58;10.73;;;2.80;;
27618;SDS011;15039;50.830;4.730;2023-12-28T10:07:24;8.38;;;2.42;;
27618;SDS011;15039;50.830;4.730;2023-12-28T10:09:51;8.50;;;2.40;;
27618;SDS011;15039;50.830;4.730;2023-12-28T10:12:17;8.40;;;2.13;;
27618;SDS011;15039;50.830;4.730;2023-12-28T10:14:43;7.05;;;1.80;;
27618;SDS011;15039;50.830;4.730;2023-12-28T10:17:08;8.70;;;1.58;;
27618;SDS011;15039;50.830;4.730;2023-12-28T10:19:34;10.63;;;2.45;;
27618;SDS011;15039;50.830;4.730;2023-12-28T10:22:02;8.05;;;1.85;;
27618;SDS011;15039;50.830;4.730;2023-12-28T10:24:28;5.60;;;1.80;;
27618;SDS011;15039;50.830;4.730;2023-12-28T10:26:53;12.52;;;2.15;;
27618;SDS011;15039;50.830;4.730;2023-12-28T10:29:20;9.80;;;1.98;;
27618;SDS011;15039;50.830;4.730;2023-12-28T10:31:49;5.18;;;1.65;;
27618;SDS011;15039;50.830;4.730;2023-12-28T10:34:16;6.63;;;1.90;;
27618;SDS011;15039;50.830;4.730;2023-12-28T10:36:43;6.88;;;2.15;;
27618;SDS011;15039;50.830;4.730;2023-12-28T10:39:10;11.82;;;2.40;;
27618;SDS011;15039;50.830;4.730;2023-12-28T10:41:39;5.73;;;1.93;;
27618;SDS011;15039;50.830;4.730;2023-12-28T10:44:09;9.02;;;2.80;;
27618;SDS011;15039;50.830;4.730;2023-12-28T10:46:40;7.15;;;2.30;;
27618;SDS011;15039;50.830;4.730;2023-12-28T10:49:12;11.55;;;2.40;;
27618;SDS011;15039;50.830;4.730;2023-12-28T10:51:41;7.95;;;2.05;;
27618;SDS011;15039;50.830;4.730;2023-12-28T10:57:09;7.47;;;2.25;;
27618;SDS011;15039;50.830;4.730;2023-12-28T11:00:08;12.37;;;2.27;;
27618;SDS011;15039;50.830;4.730;2023-12-28T11:02:46;8.07;;;2.30;;
27618;SDS011;15039;50.830;4.730;2023-12-28T11:05:17;9.45;;;2.42;;
27618;SDS011;15039;50.830;4.730;2023-12-28T11:07:44;6.72;;;1.98;;
27618;SDS011;15039;50.830;4.730;2023-12-28T11:10:10;10.32;;;1.90;;
27618;SDS011;15039;50.830;4.730;2023-12-28T11:12:39;4.27;;;1.90;;
27618;SDS011;15039;50.830;4.730;2023-12-28T11:15:05;12.85;;;2.22;;
27618;SDS011;15039;50.830;4.730;2023-12-28T11:17:33;10.13;;;2.47;;
27618;SDS011;15039;50.830;4.730;2023-12-28T11:20:05;4.60;;;1.75;;
27618;SDS011;15039;50.830;4.730;2023-12-28T11:22:32;8.43;;;2.55;;
27618;SDS011;15039;50.830;4.730;2023-12-28T11:24:58;8.85;;;2.20;;
27618;SDS011;15039;50.830;4.730;2023-12-28T11:27:24;9.77;;;2.65;;
27618;SDS011;15039;50.830;4.730;2023-12-28T11:29:51;8.77;;;2.38;;
27618;SDS011;15039;50.830;4.730;2023-12-28T11:32:17;7.63;;;1.85;;
27618;SDS011;15039;50.830;4.730;2023-12-28T11:34:45;7.70;;;2.10;;
27618;SDS011;15039;50.830;4.730;2023-12-28T11:37:23;7.40;;;1.85;;
27618;SDS011;15039;50.830;4.730;2023-12-28T11:39:50;9.10;;;1.98;;
27618;SDS011;15039;50.830;4.730;2023-12-28T11:42:19;8.82;;;2.30;;
27618;SDS011;15039;50.830;4.730;2023-12-28T11:44:46;9.63;;;2.50;;
27618;SDS011;15039;50.830;4.730;2023-12-28T11:47:20;9.27;;;1.90;;
27618;SDS011;15039;50.830;4.730;2023-12-28T11:49:47;5.70;;;2.30;;
27618;SDS011;15039;50.830;4.730;2023-12-28T11:52:29;6.88;;;1.92;;
27618;SDS011;15039;50.830;4.730;2023-12-28T11:54:55;8.63;;;2.15;;
27618;SDS011;15039;50.830;4.730;2023-12-28T11:57:21;6.85;;;2.20;;
27618;SDS011;15039;50.830;4.730;2023-12-28T11:59:58;7.60;;;2.50;;
27618;SDS011;15039;50.830;4.730;2023-12-28T12:02:25;6.90;;;2.10;;
27618;SDS011;15039;50.830;4.730;2023-12-28T12:04:54;10.57;;;2.25;;
27618;SDS011;15039;50.830;4.730;2023-12-28T12:07:23;8.90;;;2.17;;
27618;SDS011;15039;50.830;4.730;2023-12-28T12:09:54;7.63;;;2.08;;
27618;SDS011;15039;50.830;4.730;2023-12-28T12:12:23;7.95;;;2.47;;
27618;SDS011;15039;50.830;4.730;2023-12-28T12:14:50;7.25;;;2.08;;
27618;SDS011;15039;50.830;4.730;2023-12-28T12:17:17;9.48;;;2.60;;
27618;SDS011;15039;50.830;4.730;2023-12-28T12:19:43;5.97;;;1.92;;
27618;SDS011;15039;50.830;4.730;2023-12-28T12:22:08;6.68;;;2.83;;
27618;SDS011;15039;50.830;4.730;2023-12-28T12:24:34;8.68;;;2.25;;
27618;SDS011;15039;50.830;4.730;2023-12-28T12:27:00;6.38;;;2.00;;
27618;SDS011;15039;50.830;4.730;2023-12-28T12:29:29;8.43;;;2.00;;
27618;SDS011;15039;50.830;4.730;2023-12-28T12:31:55;7.70;;;2.08;;
27618;SDS011;15039;50.830;4.730;2023-12-28T12:34:21;10.57;;;2.40;;
27618;SDS011;15039;50.830;4.730;2023-12-28T12:36:48;6.10;;;1.90;;
27618;SDS011;15039;50.830;4.730;2023-12-28T12:41:45;7.75;;;1.80;;
27618;SDS011;15039;50.830;4.730;2023-12-28T12:44:11;7.33;;;2.10;;
27618;SDS011;15039;50.830;4.730;2023-12-28T12:46:37;6.10;;;1.83;;
27618;SDS011;15039;50.830;4.730;2023-12-28T12:49:05;8.95;;;1.77;;
27618;SDS011;15039;50.830;4.730;2023-12-28T12:51:31;9.43;;;2.00;;
27618;SDS011;15039;50.830;4.730;2023-12-28T12:53:59;12.60;;;2.60;;
27618;SDS011;15039;50.830;4.730;2023-12-28T12:56:27;8.15;;;2.28;;
27618;SDS011;15039;50.830;4.730;2023-12-28T12:58:54;9.20;;;2.38;;
27618;SDS011;15039;50.830;4.730;2023-12-28T13:01:20;7.03;;;2.30;;
27618;SDS011;15039;50.830;4.730;2023-12-28T13:03:46;5.75;;;1.73;;
27618;SDS011;15039;50.830;4.730;2023-12-28T13:06:12;8.45;;;1.98;;
27618;SDS011;15039;50.830;4.730;2023-12-28T13:08:38;8.30;;;2.10;;
27618;SDS011;15039;50.830;4.730;2023-12-28T13:11:04;8.35;;;2.00;;
27618;SDS011;15039;50.830;4.730;2023-12-28T13:13:33;6.60;;;1.80;;
27618;SDS011;15039;50.830;4.730;2023-12-28T13:16:00;5.93;;;1.73;;
27618;SDS011;15039;50.830;4.730;2023-12-28T13:18:26;8.05;;;2.00;;
27618;SDS011;15039;50.830;4.730;2023-12-28T13:20:51;11.15;;;1.95;;
27618;SDS011;15039;50.830;4.730;2023-12-28T13:23:17;8.32;;;2.30;;
27618;SDS011;15039;50.830;4.730;2023-12-28T13:25:43;9.63;;;2.03;;
27618;SDS011;15039;50.830;4.730;2023-12-28T13:28:09;7.90;;;2.08;;
27618;SDS011;15039;50.830;4.730;2023-12-28T13:30:35;5.47;;;2.08;;
27618;SDS011;15039;50.830;4.730;2023-12-28T13:33:05;9.60;;;1.90;;
27618;SDS011;15039;50.830;4.730;2023-12-28T13:35:31;6.53;;;1.85;;
27618;SDS011;15039;50.830;4.730;2023-12-28T13:38:00;8.10;;;1.73;;
27618;SDS011;15039;50.830;4.730;2023-12-28T13:40:26;5.72;;;1.50;;
27618;SDS011;15039;50.830;4.730;2023-12-28T13:42:52;5.05;;;1.25;;
27618;SDS011;15039;50.830;4.730;2023-12-28T13:45:18;7.40;;;1.92;;
27618;SDS011;15039;50.830;4.730;2023-12-28T13:47:44;12.18;;;2.08;;
27618;SDS011;15039;50.830;4.730;2023-12-28T13:50:10;11.10;;;2.40;;
27618;SDS011;15039;50.830;4.730;2023-12-28T13:52:37;8.90;;;2.00;;
27618;SDS011;15039;50.830;4.730;2023-12-28T13:55:02;6.15;;;1.83;;
27618;SDS011;15039;50.830;4.730;2023-12-28T13:57:28;3.60;;;1.50;;
27618;SDS011;15039;50.830;4.730;2023-12-28T13:59:54;6.88;;;1.83;;
27618;SDS011;15039;50.830;4.730;2023-12-28T14:02:25;6.32;;;1.48;;
27618;SDS011;15039;50.830;4.730;2023-12-28T14:04:51;8.55;;;2.05;;
27618;SDS011;15039;50.830;4.730;2023-12-28T14:07:16;10.32;;;1.90;;
27618;SDS011;15039;50.830;4.730;2023-12-28T14:09:42;8.25;;;1.80;;
27618;SDS011;15039;50.830;4.730;2023-12-28T14:12:08;4.95;;;1.40;;
27618;SDS011;15039;50.830;4.730;2023-12-28T14:14:34;5.68;;;1.88;;
27618;SDS011;15039;50.830;4.730;2023-12-28T14:17:00;5.97;;;1.80;;
27618;SDS011;15039;50.830;4.730;2023-12-28T14:19:25;6.35;;;1.60;;
27618;SDS011;15039;50.830;4.730;2023-12-28T14:21:51;4.75;;;1.52;;
27618;SDS011;15039;50.830;4.730;2023-12-28T14:24:17;8.70;;;1.92;;
27618;SDS011;15039;50.830;4.730;2023-12-28T14:26:43;6.88;;;1.83;;
27618;SDS011;15039;50.830;4.730;2023-12-28T14:29:10;8.68;;;2.15;;
27618;SDS011;15039;50.830;4.730;2023-12-28T14:31:37;7.53;;;1.88;;
27618;SDS011;15039;50.830;4.730;2023-12-28T14:34:03;8.32;;;2.08;;
27618;SDS011;15039;50.830;4.730;2023-12-28T14:36:31;9.25;;;1.80;;
27618;SDS011;15039;50.830;4.730;2023-12-28T14:39:09;6.97;;;1.95;;
27618;SDS011;15039;50.830;4.730;2023-12-28T14:41:34;9.32;;;1.88;;
27618;SDS011;15039;50.830;4.730;2023-12-28T14:44:02;8.52;;;1.73;;
27618;SDS011;15039;50.830;4.730;2023-12-28T14:46:28;10.40;;;2.20;;
27618;SDS011;15039;50.830;4.730;2023-12-28T14:48:56;5.25;;;1.92;;
27618;SDS011;15039;50.830;4.730;2023-12-28T14:51:26;7.22;;;1.48;;
27618;SDS011;15039;50.830;4.730;2023-12-28T14:53:59;5.72;;;2.20;;